Juneau, AK

10:13 PM AKDT on July 29, 2016 (GMT -0800)
Juneau International | | Change Station

Elev 23 ft 58.35 °N, 134.58 °W | Updated 20 minutes ago

Overcast
Overcast
56 °F
Feels Like 56 °F
N
8
Wind Variable Wind from ENE

Today
High -- | Low -- °F
--% Chance of Precip.
Yesterday
High -- | Low -- °F
Precip. -- in
Pressure 30.14 in
Visibility 10.0 miles
Clouds Few 1200 ft
Mostly Cloudy 3500 ft
Overcast 6500 ft
Dew Point 51 °F
Humidity 84%
Rainfall 0.15 in
Snow Depth Not available.
4:44 AM 9:23 PM
Waning Crescent, 16% visible
METAR PAJN 300553Z 07007KT 10SM FEW012 BKN035 OVC065 13/11 A3014 RMK AO2 SLP207 PRESENT WX N-E-S T01330106 10150 20133 55001
Pressure 30.14 in
Visibility 10.0 miles
Clouds Few 1200 ft
Mostly Cloudy 3500 ft
Overcast 6500 ft
Dew Point 51 °F
Humidity 84%
Rainfall 0.15 in
Snow Depth Not available.
4:44 AM 9:23 PM
Waning Crescent, 16% visible
METAR PAJN 300553Z 07007KT 10SM FEW012 BKN035 OVC065 13/11 A3014 RMK AO2 SLP207 PRESENT WX N-E-S T01330106 10150 20133 55001

10-Day Weather Forecast

Almanac

Astronomy

Jul. 29, 2016 Rise Set
Actual Time
Civil Twilight
Nautical Twilight
Astronomical Twilight
Moon
Length of Visible Light
Length of Day
Tomorrow will be .
, % of the Moon is Illuminated

Today's Extremes

State Highs State Lows

Community

WunderPhotos

Upload Photos

1,928,508 photos uploaded!

WunderBlog® & News

Nearby

Air Quality

  Air Quality AQ Index Pollutant
Not available.

Snow Depth

Station Depth Elevation

Earthquake Activity

City Distance Mag. Time & Date
Minimum magnitude displayed is 2.5.

Coastal Water Temperatures

Place Temperature

Stations

Nearby Weather Stations

Station Location Temp. Windchill Dew Point Humidity Wind Precip. Elev Updated Type
                   

Watches & Warnings

There are currently no watches in effect.